sensor_id;sensor_type;location;lat;lon;timestamp;P1;durP1;ratioP1;P2;durP2;ratioP2
54705;SDS011;40603;48.774;8.916;2023-06-26T00:00:22;8.55;;;6.85;;
54705;SDS011;40603;48.774;8.916;2023-06-26T00:02:47;10.27;;;6.88;;
54705;SDS011;40603;48.774;8.916;2023-06-26T00:05:12;10.02;;;6.70;;
54705;SDS011;40603;48.774;8.916;2023-06-26T00:07:38;11.38;;;6.45;;
54705;SDS011;40603;48.774;8.916;2023-06-26T00:10:04;13.00;;;6.50;;
54705;SDS011;40603;48.774;8.916;2023-06-26T00:12:30;14.18;;;6.72;;
54705;SDS011;40603;48.774;8.916;2023-06-26T00:14:56;14.43;;;7.75;;
54705;SDS011;40603;48.774;8.916;2023-06-26T00:17:21;9.43;;;6.68;;
54705;SDS011;40603;48.774;8.916;2023-06-26T00:19:47;12.55;;;7.43;;
54705;SDS011;40603;48.774;8.916;2023-06-26T00:22:12;13.85;;;7.55;;
54705;SDS011;40603;48.774;8.916;2023-06-26T00:24:38;10.73;;;6.40;;
54705;SDS011;40603;48.774;8.916;2023-06-26T00:27:03;10.15;;;7.20;;
54705;SDS011;40603;48.774;8.916;2023-06-26T00:29:28;9.48;;;6.28;;
54705;SDS011;40603;48.774;8.916;2023-06-26T00:31:53;9.45;;;6.80;;
54705;SDS011;40603;48.774;8.916;2023-06-26T00:34:19;10.15;;;6.68;;
54705;SDS011;40603;48.774;8.916;2023-06-26T00:36:44;8.07;;;6.32;;
54705;SDS011;40603;48.774;8.916;2023-06-26T00:39:10;10.40;;;6.28;;
54705;SDS011;40603;48.774;8.916;2023-06-26T00:41:36;11.98;;;7.10;;
54705;SDS011;40603;48.774;8.916;2023-06-26T00:44:02;10.40;;;6.60;;
54705;SDS011;40603;48.774;8.916;2023-06-26T00:46:27;9.85;;;6.40;;
54705;SDS011;40603;48.774;8.916;2023-06-26T00:48:52;11.35;;;6.53;;
54705;SDS011;40603;48.774;8.916;2023-06-26T00:51:19;9.20;;;6.55;;
54705;SDS011;40603;48.774;8.916;2023-06-26T00:53:44;10.15;;;6.85;;
54705;SDS011;40603;48.774;8.916;2023-06-26T00:56:10;9.07;;;6.72;;
54705;SDS011;40603;48.774;8.916;2023-06-26T00:58:36;9.25;;;6.70;;
54705;SDS011;40603;48.774;8.916;2023-06-26T01:01:01;9.32;;;6.28;;
54705;SDS011;40603;48.774;8.916;2023-06-26T01:03:28;9.27;;;6.70;;
54705;SDS011;40603;48.774;8.916;2023-06-26T01:05:54;10.23;;;6.78;;
54705;SDS011;40603;48.774;8.916;2023-06-26T01:08:21;9.15;;;6.45;;
54705;SDS011;40603;48.774;8.916;2023-06-26T01:10:47;9.05;;;6.25;;
54705;SDS011;40603;48.774;8.916;2023-06-26T01:13:13;10.60;;;7.10;;
54705;SDS011;40603;48.774;8.916;2023-06-26T01:15:40;9.73;;;6.50;;
54705;SDS011;40603;48.774;8.916;2023-06-26T01:18:06;8.57;;;6.40;;
54705;SDS011;40603;48.774;8.916;2023-06-26T01:20:32;8.63;;;6.47;;
54705;SDS011;40603;48.774;8.916;2023-06-26T01:23:06;10.38;;;7.13;;
54705;SDS011;40603;48.774;8.916;2023-06-26T01:25:44;9.95;;;6.90;;
54705;SDS011;40603;48.774;8.916;2023-06-26T01:28:15;10.63;;;7.43;;
54705;SDS011;40603;48.774;8.916;2023-06-26T01:30:42;11.10;;;7.50;;
54705;SDS011;40603;48.774;8.916;2023-06-26T01:33:09;10.27;;;6.63;;
54705;SDS011;40603;48.774;8.916;2023-06-26T01:35:35;12.15;;;7.80;;
54705;SDS011;40603;48.774;8.916;2023-06-26T01:38:16;10.15;;;7.18;;
54705;SDS011;40603;48.774;8.916;2023-06-26T01:40:42;9.45;;;6.63;;
54705;SDS011;40603;48.774;8.916;2023-06-26T01:43:14;10.20;;;6.90;;
54705;SDS011;40603;48.774;8.916;2023-06-26T01:45:46;10.60;;;7.03;;
54705;SDS011;40603;48.774;8.916;2023-06-26T01:48:13;9.23;;;6.68;;
54705;SDS011;40603;48.774;8.916;2023-06-26T01:50:40;9.48;;;6.85;;
54705;SDS011;40603;48.774;8.916;2023-06-26T01:53:13;10.82;;;6.53;;
54705;SDS011;40603;48.774;8.916;2023-06-26T01:55:45;8.95;;;6.63;;
54705;SDS011;40603;48.774;8.916;2023-06-26T01:58:12;9.02;;;6.45;;
54705;SDS011;40603;48.774;8.916;2023-06-26T02:00:38;9.27;;;6.65;;
54705;SDS011;40603;48.774;8.916;2023-06-26T02:03:04;10.20;;;6.60;;
54705;SDS011;40603;48.774;8.916;2023-06-26T02:05:31;9.85;;;6.93;;
54705;SDS011;40603;48.774;8.916;2023-06-26T02:07:56;9.68;;;6.85;;
54705;SDS011;40603;48.774;8.916;2023-06-26T02:10:21;11.95;;;6.22;;
54705;SDS011;40603;48.774;8.916;2023-06-26T02:12:47;11.70;;;7.45;;
54705;SDS011;40603;48.774;8.916;2023-06-26T02:15:12;10.30;;;6.70;;
54705;SDS011;40603;48.774;8.916;2023-06-26T02:17:37;11.32;;;6.97;;
54705;SDS011;40603;48.774;8.916;2023-06-26T02:20:03;9.45;;;7.07;;
54705;SDS011;40603;48.774;8.916;2023-06-26T02:22:29;13.23;;;6.93;;
54705;SDS011;40603;48.774;8.916;2023-06-26T02:24:54;13.48;;;6.82;;
54705;SDS011;40603;48.774;8.916;2023-06-26T02:27:19;10.52;;;7.22;;
54705;SDS011;40603;48.774;8.916;2023-06-26T02:29:44;8.95;;;6.68;;
54705;SDS011;40603;48.774;8.916;2023-06-26T02:32:10;10.57;;;6.78;;
54705;SDS011;40603;48.774;8.916;2023-06-26T02:34:35;11.45;;;6.90;;
54705;SDS011;40603;48.774;8.916;2023-06-26T02:37:01;10.98;;;6.97;;
54705;SDS011;40603;48.774;8.916;2023-06-26T02:39:26;10.18;;;6.43;;
54705;SDS011;40603;48.774;8.916;2023-06-26T02:41:52;8.68;;;5.70;;
54705;SDS011;40603;48.774;8.916;2023-06-26T02:44:17;11.25;;;6.60;;
54705;SDS011;40603;48.774;8.916;2023-06-26T02:46:43;10.50;;;7.15;;
54705;SDS011;40603;48.774;8.916;2023-06-26T02:49:08;9.15;;;6.53;;
54705;SDS011;40603;48.774;8.916;2023-06-26T02:51:33;9.85;;;6.65;;
54705;SDS011;40603;48.774;8.916;2023-06-26T02:53:59;9.95;;;7.15;;
54705;SDS011;40603;48.774;8.916;2023-06-26T02:56:25;10.05;;;7.13;;
54705;SDS011;40603;48.774;8.916;2023-06-26T02:58:53;11.23;;;6.60;;
54705;SDS011;40603;48.774;8.916;2023-06-26T03:01:19;10.88;;;6.55;;
54705;SDS011;40603;48.774;8.916;2023-06-26T03:03:45;9.25;;;6.35;;
54705;SDS011;40603;48.774;8.916;2023-06-26T03:06:12;13.40;;;6.35;;
54705;SDS011;40603;48.774;8.916;2023-06-26T03:08:37;12.55;;;7.25;;
54705;SDS011;40603;48.774;8.916;2023-06-26T03:11:04;9.63;;;6.10;;
54705;SDS011;40603;48.774;8.916;2023-06-26T03:13:29;9.82;;;7.13;;
54705;SDS011;40603;48.774;8.916;2023-06-26T03:15:55;11.35;;;7.15;;
54705;SDS011;40603;48.774;8.916;2023-06-26T03:18:20;11.13;;;6.82;;
54705;SDS011;40603;48.774;8.916;2023-06-26T03:20:45;9.52;;;6.68;;
54705;SDS011;40603;48.774;8.916;2023-06-26T03:23:11;10.23;;;6.93;;
54705;SDS011;40603;48.774;8.916;2023-06-26T03:25:36;12.23;;;7.43;;
54705;SDS011;40603;48.774;8.916;2023-06-26T03:28:01;10.02;;;6.65;;
54705;SDS011;40603;48.774;8.916;2023-06-26T03:30:26;10.65;;;6.55;;
54705;SDS011;40603;48.774;8.916;2023-06-26T03:32:52;15.50;;;7.22;;
54705;SDS011;40603;48.774;8.916;2023-06-26T03:35:17;12.60;;;6.82;;
54705;SDS011;40603;48.774;8.916;2023-06-26T03:37:43;11.95;;;6.93;;
54705;SDS011;40603;48.774;8.916;2023-06-26T03:40:08;10.85;;;7.20;;
54705;SDS011;40603;48.774;8.916;2023-06-26T03:42:34;9.88;;;6.65;;
54705;SDS011;40603;48.774;8.916;2023-06-26T03:44:59;11.27;;;7.22;;
54705;SDS011;40603;48.774;8.916;2023-06-26T03:47:25;9.90;;;7.13;;
54705;SDS011;40603;48.774;8.916;2023-06-26T03:49:50;11.23;;;7.32;;
54705;SDS011;40603;48.774;8.916;2023-06-26T03:52:15;9.82;;;6.80;;
54705;SDS011;40603;48.774;8.916;2023-06-26T03:54:40;11.60;;;6.90;;
54705;SDS011;40603;48.774;8.916;2023-06-26T03:57:06;13.40;;;7.05;;
54705;SDS011;40603;48.774;8.916;2023-06-26T03:59:31;12.07;;;7.30;;
54705;SDS011;40603;48.774;8.916;2023-06-26T04:01:57;12.50;;;7.30;;
54705;SDS011;40603;48.774;8.916;2023-06-26T04:04:22;14.43;;;7.20;;
54705;SDS011;40603;48.774;8.916;2023-06-26T04:06:47;9.23;;;7.00;;
54705;SDS011;40603;48.774;8.916;2023-06-26T04:09:12;9.10;;;6.60;;
54705;SDS011;40603;48.774;8.916;2023-06-26T04:11:38;14.63;;;7.57;;
54705;SDS011;40603;48.774;8.916;2023-06-26T04:14:03;13.90;;;7.68;;
54705;SDS011;40603;48.774;8.916;2023-06-26T04:16:29;14.10;;;8.25;;
54705;SDS011;40603;48.774;8.916;2023-06-26T04:18:54;13.20;;;7.93;;
54705;SDS011;40603;48.774;8.916;2023-06-26T04:21:21;10.52;;;7.93;;
54705;SDS011;40603;48.774;8.916;2023-06-26T04:23:48;15.55;;;8.10;;
54705;SDS011;40603;48.774;8.916;2023-06-26T04:26:14;11.70;;;7.20;;
54705;SDS011;40603;48.774;8.916;2023-06-26T04:28:39;14.10;;;7.20;;
54705;SDS011;40603;48.774;8.916;2023-06-26T04:31:05;14.95;;;7.38;;
54705;SDS011;40603;48.774;8.916;2023-06-26T04:33:30;11.85;;;7.88;;
54705;SDS011;40603;48.774;8.916;2023-06-26T04:35:56;12.23;;;7.78;;
54705;SDS011;40603;48.774;8.916;2023-06-26T04:38:21;12.13;;;7.35;;
54705;SDS011;40603;48.774;8.916;2023-06-26T04:40:47;11.32;;;6.45;;
54705;SDS011;40603;48.774;8.916;2023-06-26T04:43:13;9.88;;;6.95;;
54705;SDS011;40603;48.774;8.916;2023-06-26T04:45:38;11.57;;;7.45;;
54705;SDS011;40603;48.774;8.916;2023-06-26T04:48:03;12.25;;;7.28;;
54705;SDS011;40603;48.774;8.916;2023-06-26T04:50:30;13.02;;;6.88;;
54705;SDS011;40603;48.774;8.916;2023-06-26T04:52:56;10.02;;;6.90;;
54705;SDS011;40603;48.774;8.916;2023-06-26T04:55:23;11.63;;;7.38;;
54705;SDS011;40603;48.774;8.916;2023-06-26T04:57:49;11.25;;;7.20;;
54705;SDS011;40603;48.774;8.916;2023-06-26T05:00:14;11.25;;;6.70;;
54705;SDS011;40603;48.774;8.916;2023-06-26T05:02:40;12.38;;;7.45;;
54705;SDS011;40603;48.774;8.916;2023-06-26T05:05:05;11.32;;;6.85;;
54705;SDS011;40603;48.774;8.916;2023-06-26T05:07:31;13.52;;;7.10;;
54705;SDS011;40603;48.774;8.916;2023-06-26T05:09:56;9.63;;;6.55;;
54705;SDS011;40603;48.774;8.916;2023-06-26T05:12:21;9.40;;;6.55;;
54705;SDS011;40603;48.774;8.916;2023-06-26T05:14:46;10.88;;;7.45;;
54705;SDS011;40603;48.774;8.916;2023-06-26T05:17:13;11.10;;;6.80;;
54705;SDS011;40603;48.774;8.916;2023-06-26T05:19:38;10.23;;;6.22;;
54705;SDS011;40603;48.774;8.916;2023-06-26T05:22:04;12.13;;;6.75;;
54705;SDS011;40603;48.774;8.916;2023-06-26T05:24:32;11.85;;;6.40;;
54705;SDS011;40603;48.774;8.916;2023-06-26T05:26:58;12.05;;;8.32;;
54705;SDS011;40603;48.774;8.916;2023-06-26T05:29:24;13.45;;;7.47;;
54705;SDS011;40603;48.774;8.916;2023-06-26T05:31:50;10.70;;;7.13;;
54705;SDS011;40603;48.774;8.916;2023-06-26T05:34:16;13.40;;;6.55;;
54705;SDS011;40603;48.774;8.916;2023-06-26T05:36:42;10.80;;;6.53;;
54705;SDS011;40603;48.774;8.916;2023-06-26T05:39:08;12.63;;;7.43;;
54705;SDS011;40603;48.774;8.916;2023-06-26T05:41:34;12.40;;;6.80;;
54705;SDS011;40603;48.774;8.916;2023-06-26T05:43:59;17.73;;;7.88;;
54705;SDS011;40603;48.774;8.916;2023-06-26T05:46:24;12.57;;;7.70;;
54705;SDS011;40603;48.774;8.916;2023-06-26T05:48:50;9.95;;;7.32;;
54705;SDS011;40603;48.774;8.916;2023-06-26T05:51:15;11.63;;;7.07;;
54705;SDS011;40603;48.774;8.916;2023-06-26T05:53:41;11.57;;;6.95;;
54705;SDS011;40603;48.774;8.916;2023-06-26T05:56:06;14.00;;;6.50;;
54705;SDS011;40603;48.774;8.916;2023-06-26T05:58:32;14.88;;;6.78;;
54705;SDS011;40603;48.774;8.916;2023-06-26T06:00:57;11.82;;;6.43;;
54705;SDS011;40603;48.774;8.916;2023-06-26T06:03:23;12.40;;;5.97;;
54705;SDS011;40603;48.774;8.916;2023-06-26T06:05:48;10.27;;;6.50;;
54705;SDS011;40603;48.774;8.916;2023-06-26T06:08:13;9.07;;;6.13;;
54705;SDS011;40603;48.774;8.916;2023-06-26T06:10:39;14.63;;;6.68;;
54705;SDS011;40603;48.774;8.916;2023-06-26T06:13:04;19.45;;;6.85;;
54705;SDS011;40603;48.774;8.916;2023-06-26T06:15:29;10.32;;;5.93;;
54705;SDS011;40603;48.774;8.916;2023-06-26T06:17:55;12.10;;;5.97;;
54705;SDS011;40603;48.774;8.916;2023-06-26T06:20:20;8.98;;;5.70;;
54705;SDS011;40603;48.774;8.916;2023-06-26T06:22:46;11.73;;;5.82;;
54705;SDS011;40603;48.774;8.916;2023-06-26T06:25:13;7.32;;;5.57;;
54705;SDS011;40603;48.774;8.916;2023-06-26T06:27:38;9.23;;;5.80;;
54705;SDS011;40603;48.774;8.916;2023-06-26T06:30:04;11.00;;;5.85;;
54705;SDS011;40603;48.774;8.916;2023-06-26T06:32:29;10.05;;;5.28;;
54705;SDS011;40603;48.774;8.916;2023-06-26T06:34:54;14.80;;;5.95;;
54705;SDS011;40603;48.774;8.916;2023-06-26T06:37:20;9.93;;;6.10;;
54705;SDS011;40603;48.774;8.916;2023-06-26T06:39:45;10.73;;;5.32;;
54705;SDS011;40603;48.774;8.916;2023-06-26T06:42:10;9.88;;;5.18;;
54705;SDS011;40603;48.774;8.916;2023-06-26T06:44:36;9.32;;;5.45;;
54705;SDS011;40603;48.774;8.916;2023-06-26T06:47:01;7.50;;;5.07;;
54705;SDS011;40603;48.774;8.916;2023-06-26T06:49:26;9.10;;;5.43;;
54705;SDS011;40603;48.774;8.916;2023-06-26T06:51:52;9.88;;;4.95;;
54705;SDS011;40603;48.774;8.916;2023-06-26T06:54:17;7.68;;;5.53;;
54705;SDS011;40603;48.774;8.916;2023-06-26T06:56:42;7.47;;;4.75;;
54705;SDS011;40603;48.774;8.916;2023-06-26T06:59:08;8.48;;;5.15;;
54705;SDS011;40603;48.774;8.916;2023-06-26T07:01:33;6.13;;;4.43;;
54705;SDS011;40603;48.774;8.916;2023-06-26T07:03:58;6.57;;;5.00;;
54705;SDS011;40603;48.774;8.916;2023-06-26T07:06:24;10.73;;;5.38;;
54705;SDS011;40603;48.774;8.916;2023-06-26T07:08:49;5.97;;;4.75;;
54705;SDS011;40603;48.774;8.916;2023-06-26T07:11:14;5.28;;;4.15;;
54705;SDS011;40603;48.774;8.916;2023-06-26T07:13:40;6.32;;;4.25;;
54705;SDS011;40603;48.774;8.916;2023-06-26T07:16:05;5.90;;;4.57;;
54705;SDS011;40603;48.774;8.916;2023-06-26T07:18:31;4.97;;;3.80;;
54705;SDS011;40603;48.774;8.916;2023-06-26T07:20:56;5.20;;;3.95;;
54705;SDS011;40603;48.774;8.916;2023-06-26T07:23:21;4.40;;;3.65;;
54705;SDS011;40603;48.774;8.916;2023-06-26T07:25:46;5.53;;;3.50;;
54705;SDS011;40603;48.774;8.916;2023-06-26T07:28:12;4.75;;;3.65;;
54705;SDS011;40603;48.774;8.916;2023-06-26T07:30:37;4.28;;;3.60;;
54705;SDS011;40603;48.774;8.916;2023-06-26T07:33:03;4.20;;;3.67;;
54705;SDS011;40603;48.774;8.916;2023-06-26T07:35:28;4.85;;;3.53;;
54705;SDS011;40603;48.774;8.916;2023-06-26T07:37:53;4.70;;;3.78;;
54705;SDS011;40603;48.774;8.916;2023-06-26T07:40:19;5.43;;;4.03;;
54705;SDS011;40603;48.774;8.916;2023-06-26T07:42:44;5.65;;;3.70;;
54705;SDS011;40603;48.774;8.916;2023-06-26T07:45:11;4.95;;;3.85;;
54705;SDS011;40603;48.774;8.916;2023-06-26T07:47:37;4.00;;;3.60;;
54705;SDS011;40603;48.774;8.916;2023-06-26T07:50:03;4.43;;;3.67;;
54705;SDS011;40603;48.774;8.916;2023-06-26T07:52:28;4.75;;;3.70;;
54705;SDS011;40603;48.774;8.916;2023-06-26T07:54:55;6.45;;;4.07;;
54705;SDS011;40603;48.774;8.916;2023-06-26T07:57:20;5.00;;;4.05;;
54705;SDS011;40603;48.774;8.916;2023-06-26T07:59:45;5.25;;;3.80;;
54705;SDS011;40603;48.774;8.916;2023-06-26T08:02:11;4.47;;;4.03;;
54705;SDS011;40603;48.774;8.916;2023-06-26T08:04:36;4.30;;;3.50;;
54705;SDS011;40603;48.774;8.916;2023-06-26T08:07:01;5.70;;;3.78;;
54705;SDS011;40603;48.774;8.916;2023-06-26T08:09:29;6.20;;;4.50;;
54705;SDS011;40603;48.774;8.916;2023-06-26T08:11:55;5.68;;;3.67;;
54705;SDS011;40603;48.774;8.916;2023-06-26T08:14:21;6.07;;;3.75;;
54705;SDS011;40603;48.774;8.916;2023-06-26T08:16:46;5.35;;;4.30;;
54705;SDS011;40603;48.774;8.916;2023-06-26T08:19:12;6.22;;;3.60;;
54705;SDS011;40603;48.774;8.916;2023-06-26T08:21:38;3.78;;;3.38;;
54705;SDS011;40603;48.774;8.916;2023-06-26T08:24:04;6.63;;;3.92;;
54705;SDS011;40603;48.774;8.916;2023-06-26T08:26:29;4.88;;;3.97;;
54705;SDS011;40603;48.774;8.916;2023-06-26T08:28:54;4.53;;;3.78;;
54705;SDS011;40603;48.774;8.916;2023-06-26T08:31:20;4.53;;;4.03;;
54705;SDS011;40603;48.774;8.916;2023-06-26T08:33:45;5.40;;;4.22;;
54705;SDS011;40603;48.774;8.916;2023-06-26T08:36:11;13.68;;;4.35;;
54705;SDS011;40603;48.774;8.916;2023-06-26T08:38:36;5.07;;;4.20;;
54705;SDS011;40603;48.774;8.916;2023-06-26T08:41:01;5.45;;;4.32;;
54705;SDS011;40603;48.774;8.916;2023-06-26T08:43:27;5.55;;;4.40;;
54705;SDS011;40603;48.774;8.916;2023-06-26T08:45:53;7.45;;;4.53;;
54705;SDS011;40603;48.774;8.916;2023-06-26T08:48:18;6.65;;;4.53;;
54705;SDS011;40603;48.774;8.916;2023-06-26T08:50:45;5.53;;;4.57;;
54705;SDS011;40603;48.774;8.916;2023-06-26T08:55:57;5.13;;;4.30;;
54705;SDS011;40603;48.774;8.916;2023-06-26T08:58:23;5.60;;;4.38;;
54705;SDS011;40603;48.774;8.916;2023-06-26T09:00:49;4.07;;;3.60;;
54705;SDS011;40603;48.774;8.916;2023-06-26T09:03:14;5.35;;;4.50;;
54705;SDS011;40603;48.774;8.916;2023-06-26T09:05:40;4.60;;;4.00;;
54705;SDS011;40603;48.774;8.916;2023-06-26T09:08:05;15.07;;;4.35;;
54705;SDS011;40603;48.774;8.916;2023-06-26T09:10:31;4.45;;;4.05;;
54705;SDS011;40603;48.774;8.916;2023-06-26T09:12:56;5.55;;;4.57;;
54705;SDS011;40603;48.774;8.916;2023-06-26T09:15:23;7.85;;;4.38;;
54705;SDS011;40603;48.774;8.916;2023-06-26T09:17:48;9.05;;;3.90;;
54705;SDS011;40603;48.774;8.916;2023-06-26T09:20:14;5.30;;;4.50;;
54705;SDS011;40603;48.774;8.916;2023-06-26T09:22:41;5.60;;;4.53;;
54705;SDS011;40603;48.774;8.916;2023-06-26T09:25:07;5.32;;;4.13;;
54705;SDS011;40603;48.774;8.916;2023-06-26T09:27:34;7.05;;;4.57;;
54705;SDS011;40603;48.774;8.916;2023-06-26T09:30:00;5.68;;;4.50;;
54705;SDS011;40603;48.774;8.916;2023-06-26T09:32:27;8.75;;;4.25;;
54705;SDS011;40603;48.774;8.916;2023-06-26T09:34:53;5.25;;;4.10;;
54705;SDS011;40603;48.774;8.916;2023-06-26T09:37:20;6.43;;;4.10;;
54705;SDS011;40603;48.774;8.916;2023-06-26T09:39:46;13.02;;;4.78;;
54705;SDS011;40603;48.774;8.916;2023-06-26T09:42:13;5.72;;;4.63;;
54705;SDS011;40603;48.774;8.916;2023-06-26T09:44:43;4.63;;;3.90;;
54705;SDS011;40603;48.774;8.916;2023-06-26T09:47:09;4.88;;;4.15;;
54705;SDS011;40603;48.774;8.916;2023-06-26T09:49:34;4.70;;;4.20;;
54705;SDS011;40603;48.774;8.916;2023-06-26T09:52:00;8.15;;;4.47;;
54705;SDS011;40603;48.774;8.916;2023-06-26T09:54:25;7.70;;;4.70;;
54705;SDS011;40603;48.774;8.916;2023-06-26T09:56:55;5.28;;;4.70;;
54705;SDS011;40603;48.774;8.916;2023-06-26T09:59:21;6.35;;;5.07;;
54705;SDS011;40603;48.774;8.916;2023-06-26T10:01:46;7.32;;;5.25;;
54705;SDS011;40603;48.774;8.916;2023-06-26T10:04:12;6.85;;;5.20;;
54705;SDS011;40603;48.774;8.916;2023-06-26T10:06:38;8.15;;;5.35;;
54705;SDS011;40603;48.774;8.916;2023-06-26T10:09:07;10.80;;;5.85;;
54705;SDS011;40603;48.774;8.916;2023-06-26T10:11:54;7.55;;;5.30;;
54705;SDS011;40603;48.774;8.916;2023-06-26T10:14:21;8.65;;;5.30;;
54705;SDS011;40603;48.774;8.916;2023-06-26T10:16:48;6.35;;;5.65;;
54705;SDS011;40603;48.774;8.916;2023-06-26T10:19:14;7.88;;;5.22;;
54705;SDS011;40603;48.774;8.916;2023-06-26T10:21:43;6.00;;;5.18;;
54705;SDS011;40603;48.774;8.916;2023-06-26T10:24:09;7.03;;;5.15;;
54705;SDS011;40603;48.774;8.916;2023-06-26T10:26:35;8.43;;;5.43;;
54705;SDS011;40603;48.774;8.916;2023-06-26T10:29:03;12.43;;;5.75;;
54705;SDS011;40603;48.774;8.916;2023-06-26T10:31:29;7.28;;;5.63;;
54705;SDS011;40603;48.774;8.916;2023-06-26T10:33:55;8.30;;;5.05;;
54705;SDS011;40603;48.774;8.916;2023-06-26T10:36:27;9.55;;;5.65;;
54705;SDS011;40603;48.774;8.916;2023-06-26T10:38:56;7.18;;;5.40;;
54705;SDS011;40603;48.774;8.916;2023-06-26T10:41:23;6.07;;;5.00;;
54705;SDS011;40603;48.774;8.916;2023-06-26T10:44:07;6.28;;;5.30;;
54705;SDS011;40603;48.774;8.916;2023-06-26T10:46:39;6.00;;;5.13;;
54705;SDS011;40603;48.774;8.916;2023-06-26T10:49:13;6.80;;;4.90;;
54705;SDS011;40603;48.774;8.916;2023-06-26T10:51:38;7.70;;;5.50;;
54705;SDS011;40603;48.774;8.916;2023-06-26T10:54:12;8.98;;;5.70;;
54705;SDS011;40603;48.774;8.916;2023-06-26T10:56:43;7.55;;;4.95;;
54705;SDS011;40603;48.774;8.916;2023-06-26T10:59:19;6.07;;;5.05;;
54705;SDS011;40603;48.774;8.916;2023-06-26T11:01:55;13.25;;;6.07;;
54705;SDS011;40603;48.774;8.916;2023-06-26T11:04:40;6.00;;;5.40;;
54705;SDS011;40603;48.774;8.916;2023-06-26T11:07:19;6.80;;;5.50;;
54705;SDS011;40603;48.774;8.916;2023-06-26T11:09:55;7.13;;;5.25;;
54705;SDS011;40603;48.774;8.916;2023-06-26T11:12:39;7.53;;;5.65;;
54705;SDS011;40603;48.774;8.916;2023-06-26T11:15:10;6.50;;;5.18;;
54705;SDS011;40603;48.774;8.916;2023-06-26T11:17:37;6.85;;;5.25;;
54705;SDS011;40603;48.774;8.916;2023-06-26T11:20:05;8.82;;;5.53;;
54705;SDS011;40603;48.774;8.916;2023-06-26T11:22:33;9.63;;;5.65;;
54705;SDS011;40603;48.774;8.916;2023-06-26T11:24:59;7.82;;;5.40;;
54705;SDS011;40603;48.774;8.916;2023-06-26T11:27:30;6.53;;;5.70;;
54705;SDS011;40603;48.774;8.916;2023-06-26T11:30:03;7.80;;;5.65;;
54705;SDS011;40603;48.774;8.916;2023-06-26T11:32:28;6.75;;;5.43;;
54705;SDS011;40603;48.774;8.916;2023-06-26T11:34:54;6.25;;;5.20;;
54705;SDS011;40603;48.774;8.916;2023-06-26T11:37:20;7.78;;;4.80;;
54705;SDS011;40603;48.774;8.916;2023-06-26T11:39:46;11.88;;;5.50;;
54705;SDS011;40603;48.774;8.916;2023-06-26T11:42:11;7.93;;;5.72;;
54705;SDS011;40603;48.774;8.916;2023-06-26T11:44:40;10.07;;;5.38;;
54705;SDS011;40603;48.774;8.916;2023-06-26T11:47:07;7.47;;;5.10;;
54705;SDS011;40603;48.774;8.916;2023-06-26T11:49:32;9.10;;;5.43;;
54705;SDS011;40603;48.774;8.916;2023-06-26T11:51:57;10.88;;;5.20;;
54705;SDS011;40603;48.774;8.916;2023-06-26T11:54:23;6.95;;;5.40;;
54705;SDS011;40603;48.774;8.916;2023-06-26T11:56:57;6.88;;;5.15;;
54705;SDS011;40603;48.774;8.916;2023-06-26T11:59:23;9.43;;;5.25;;
54705;SDS011;40603;48.774;8.916;2023-06-26T12:01:49;6.63;;;5.20;;
54705;SDS011;40603;48.774;8.916;2023-06-26T12:04:16;9.60;;;5.95;;
54705;SDS011;40603;48.774;8.916;2023-06-26T12:06:45;9.45;;;5.20;;
54705;SDS011;40603;48.774;8.916;2023-06-26T12:09:13;6.47;;;4.65;;
54705;SDS011;40603;48.774;8.916;2023-06-26T12:11:39;11.52;;;5.22;;
54705;SDS011;40603;48.774;8.916;2023-06-26T12:14:06;10.27;;;5.50;;
54705;SDS011;40603;48.774;8.916;2023-06-26T12:16:31;7.28;;;5.05;;
54705;SDS011;40603;48.774;8.916;2023-06-26T12:19:03;7.28;;;5.65;;
54705;SDS011;40603;48.774;8.916;2023-06-26T12:24:07;7.72;;;4.60;;
54705;SDS011;40603;48.774;8.916;2023-06-26T12:26:33;6.72;;;5.18;;
54705;SDS011;40603;48.774;8.916;2023-06-26T12:29:05;7.13;;;4.90;;
54705;SDS011;40603;48.774;8.916;2023-06-26T12:31:32;7.13;;;5.00;;
54705;SDS011;40603;48.774;8.916;2023-06-26T12:33:57;9.35;;;5.20;;
54705;SDS011;40603;48.774;8.916;2023-06-26T12:36:23;6.07;;;5.25;;
54705;SDS011;40603;48.774;8.916;2023-06-26T12:38:48;9.13;;;5.10;;
54705;SDS011;40603;48.774;8.916;2023-06-26T12:41:14;10.07;;;5.30;;
54705;SDS011;40603;48.774;8.916;2023-06-26T12:43:40;7.65;;;4.88;;
54705;SDS011;40603;48.774;8.916;2023-06-26T12:46:05;7.20;;;5.45;;
54705;SDS011;40603;48.774;8.916;2023-06-26T12:48:37;7.60;;;5.35;;
54705;SDS011;40603;48.774;8.916;2023-06-26T12:51:11;5.28;;;4.72;;
54705;SDS011;40603;48.774;8.916;2023-06-26T12:53:40;6.13;;;4.55;;
54705;SDS011;40603;48.774;8.916;2023-06-26T12:56:06;5.47;;;4.20;;
54705;SDS011;40603;48.774;8.916;2023-06-26T12:58:32;5.03;;;4.10;;
54705;SDS011;40603;48.774;8.916;2023-06-26T13:01:05;10.10;;;5.43;;
54705;SDS011;40603;48.774;8.916;2023-06-26T13:03:35;9.77;;;4.70;;
54705;SDS011;40603;48.774;8.916;2023-06-26T13:06:01;9.43;;;4.75;;
54705;SDS011;40603;48.774;8.916;2023-06-26T13:08:26;6.55;;;4.75;;
54705;SDS011;40603;48.774;8.916;2023-06-26T13:10:51;6.97;;;4.45;;
54705;SDS011;40603;48.774;8.916;2023-06-26T13:13:17;10.63;;;4.43;;
54705;SDS011;40603;48.774;8.916;2023-06-26T13:15:42;5.07;;;4.00;;
54705;SDS011;40603;48.774;8.916;2023-06-26T13:18:07;6.70;;;4.18;;
54705;SDS011;40603;48.774;8.916;2023-06-26T13:20:32;8.70;;;4.18;;
54705;SDS011;40603;48.774;8.916;2023-06-26T13:22:58;6.53;;;4.22;;
54705;SDS011;40603;48.774;8.916;2023-06-26T13:25:23;10.73;;;4.65;;
54705;SDS011;40603;48.774;8.916;2023-06-26T13:27:48;7.03;;;4.47;;
54705;SDS011;40603;48.774;8.916;2023-06-26T13:30:14;5.55;;;4.30;;
54705;SDS011;40603;48.774;8.916;2023-06-26T13:32:40;5.53;;;4.50;;
54705;SDS011;40603;48.774;8.916;2023-06-26T13:35:05;4.80;;;3.67;;
54705;SDS011;40603;48.774;8.916;2023-06-26T13:37:31;6.15;;;3.95;;
54705;SDS011;40603;48.774;8.916;2023-06-26T13:39:56;8.77;;;4.15;;
54705;SDS011;40603;48.774;8.916;2023-06-26T13:42:24;4.97;;;3.70;;
54705;SDS011;40603;48.774;8.916;2023-06-26T13:44:49;9.45;;;4.28;;
54705;SDS011;40603;48.774;8.916;2023-06-26T13:47:14;10.65;;;4.00;;
54705;SDS011;40603;48.774;8.916;2023-06-26T13:49:40;6.40;;;3.47;;
54705;SDS011;40603;48.774;8.916;2023-06-26T13:52:05;7.10;;;3.72;;
54705;SDS011;40603;48.774;8.916;2023-06-26T13:54:33;6.10;;;3.53;;
54705;SDS011;40603;48.774;8.916;2023-06-26T13:56:59;5.70;;;3.58;;
54705;SDS011;40603;48.774;8.916;2023-06-26T13:59:27;5.63;;;3.00;;
54705;SDS011;40603;48.774;8.916;2023-06-26T14:01:53;7.88;;;2.95;;
54705;SDS011;40603;48.774;8.916;2023-06-26T14:04:18;3.97;;;3.03;;
54705;SDS011;40603;48.774;8.916;2023-06-26T14:06:43;3.40;;;3.05;;
54705;SDS011;40603;48.774;8.916;2023-06-26T14:09:10;6.70;;;3.00;;
54705;SDS011;40603;48.774;8.916;2023-06-26T14:11:35;4.35;;;3.33;;
54705;SDS011;40603;48.774;8.916;2023-06-26T14:14:01;4.22;;;3.28;;
54705;SDS011;40603;48.774;8.916;2023-06-26T14:16:26;6.07;;;2.80;;
54705;SDS011;40603;48.774;8.916;2023-06-26T14:18:53;6.18;;;2.80;;
54705;SDS011;40603;48.774;8.916;2023-06-26T14:21:18;4.43;;;3.17;;
54705;SDS011;40603;48.774;8.916;2023-06-26T14:23:44;4.57;;;3.10;;
54705;SDS011;40603;48.774;8.916;2023-06-26T14:26:09;5.13;;;3.20;;
54705;SDS011;40603;48.774;8.916;2023-06-26T14:28:35;6.18;;;3.28;;
54705;SDS011;40603;48.774;8.916;2023-06-26T14:31:00;5.82;;;3.53;;
54705;SDS011;40603;48.774;8.916;2023-06-26T14:33:25;5.28;;;2.90;;
54705;SDS011;40603;48.774;8.916;2023-06-26T14:35:51;5.13;;;3.05;;
54705;SDS011;40603;48.774;8.916;2023-06-26T14:38:16;4.25;;;3.17;;
54705;SDS011;40603;48.774;8.916;2023-06-26T14:40:41;14.98;;;3.42;;
54705;SDS011;40603;48.774;8.916;2023-06-26T14:43:07;3.70;;;2.85;;